Time;durP1;ratioP1;P1;durP2;ratioP2;P2;SDS_P1;SDS_P2;PMS_P1;PMS_P2;Temp;Humidity;BMP_temperature;BMP_pressure;BME280_temperature;BME280_humidity;BME280_pressure;Samples;Min_cycle;Max_cycle;Signal;HPM_P1;HPM_P2
2021/01/13 00:00:45;;;;;;;35.90;19.70;;;;;;;;;;6213654;28;20045;-68
2021/01/13 00:03:46;;;;;;;35.60;19.85;;;;;;;;;;6212458;28;20056;-68
2021/01/13 00:06:49;;;;;;;33.17;18.92;;;;;;;;;;6206131;28;20077;-68
2021/01/13 00:09:50;;;;;;;40.60;19.13;;;;;;;;;;6214171;28;20180;-68
2021/01/13 00:12:52;;;;;;;33.58;18.40;;;;;;;;;;6207666;28;20062;-67
2021/01/13 00:15:53;;;;;;;35.67;18.52;;;;;;;;;;6214580;28;20133;-68
2021/01/13 00:18:54;;;;;;;31.27;18.88;;;;;;;;;;6212948;28;20053;-68
2021/01/13 00:21:55;;;;;;;30.77;19.50;;;;;;;;;;6214636;28;20121;-67
2021/01/13 00:24:57;;;;;;;34.42;17.98;;;;;;;;;;6218516;28;20153;-69
2021/01/13 00:27:59;;;;;;;29.08;16.67;;;;;;;;;;6214522;28;20615;-68
2021/01/13 00:31:00;;;;;;;35.25;19.90;;;;;;;;;;6214000;28;20136;-67
2021/01/13 00:34:01;;;;;;;44.70;25.00;;;;;;;;;;6210311;28;20472;-68
2021/01/13 00:37:02;;;;;;;70.15;34.22;;;;;;;;;;6206828;28;20042;-67
2021/01/13 00:40:04;;;;;;;36.13;19.48;;;;;;;;;;6210203;28;20050;-68
2021/01/13 00:43:06;;;;;;;38.35;19.63;;;;;;;;;;6211835;28;20062;-67
2021/01/13 00:46:07;;;;;;;35.75;19.13;;;;;;;;;;6211553;28;20488;-69
2021/01/13 00:49:08;;;;;;;33.55;17.90;;;;;;;;;;6213863;28;20076;-68
2021/01/13 00:52:10;;;;;;;30.42;20.27;;;;;;;;;;6212917;28;20783;-67
2021/01/13 00:55:11;;;;;;;30.17;17.98;;;;;;;;;;6213113;28;20048;-68
2021/01/13 00:58:13;;;;;;;28.65;17.40;;;;;;;;;;6212637;28;20045;-68
2021/01/13 01:01:14;;;;;;;31.40;18.35;;;;;;;;;;6210557;28;20052;-69
2021/01/13 01:04:15;;;;;;;29.00;17.13;;;;;;;;;;6199939;28;20497;-69
2021/01/13 01:07:16;;;;;;;32.80;18.70;;;;;;;;;;6208642;28;20095;-68
2021/01/13 01:10:20;;;;;;;31.42;17.65;;;;;;;;;;6192025;28;20100;-69
2021/01/13 01:13:22;;;;;;;32.38;18.45;;;;;;;;;;6204607;28;20728;-67
2021/01/13 01:16:28;;;;;;;34.75;19.20;;;;;;;;;;6207902;28;20538;-68
2021/01/13 01:19:29;;;;;;;29.92;17.45;;;;;;;;;;6209858;28;20054;-69
2021/01/13 01:22:30;;;;;;;34.47;19.33;;;;;;;;;;6209463;28;20042;-69
2021/01/13 01:25:31;;;;;;;35.65;21.35;;;;;;;;;;6208844;28;20388;-68
2021/01/13 01:28:33;;;;;;;32.08;18.70;;;;;;;;;;6210379;28;20077;-69
2021/01/13 01:31:34;;;;;;;29.75;17.98;;;;;;;;;;6207730;28;20847;-69
2021/01/13 01:34:35;;;;;;;29.45;17.45;;;;;;;;;;6211184;28;20042;-69
2021/01/13 01:37:38;;;;;;;27.80;17.02;;;;;;;;;;6211547;28;20084;-69
2021/01/13 01:40:39;;;;;;;28.00;17.20;;;;;;;;;;6201495;28;20156;-69
2021/01/13 01:43:43;;;;;;;30.20;17.02;;;;;;;;;;6207646;28;20490;-68
2021/01/13 01:46:45;;;;;;;34.80;16.55;;;;;;;;;;6208652;28;20469;-69
2021/01/13 01:49:47;;;;;;;28.92;18.05;;;;;;;;;;6207867;28;20058;-68
2021/01/13 01:52:49;;;;;;;33.00;18.05;;;;;;;;;;6203211;28;20058;-67
2021/01/13 01:55:55;;;;;;;29.95;17.98;;;;;;;;;;6206130;28;20050;-67
2021/01/13 01:59:02;;;;;;;34.65;18.80;;;;;;;;;;6207894;28;20403;-69
2021/01/13 02:02:04;;;;;;;31.60;18.20;;;;;;;;;;6203761;28;20972;-69
2021/01/13 02:05:08;;;;;;;32.08;20.25;;;;;;;;;;6208401;28;20046;-69
2021/01/13 02:08:19;;;;;;;30.83;17.23;;;;;;;;;;6216798;28;20077;-68
2021/01/13 02:11:24;;;;;;;32.97;18.20;;;;;;;;;;6209379;28;20149;-71
2021/01/13 02:14:27;;;;;;;37.35;21.95;;;;;;;;;;6207258;28;20096;-66
2021/01/13 02:17:33;;;;;;;32.85;21.38;;;;;;;;;;6215267;28;20129;-67
2021/01/13 02:20:36;;;;;;;32.30;19.13;;;;;;;;;;6215726;28;20049;-67
2021/01/13 02:23:45;;;;;;;33.72;20.65;;;;;;;;;;6214613;28;20049;-67
2021/01/13 02:27:17;;;;;;;33.30;19.83;;;;;;;;;;6212272;28;20076;-66
2021/01/13 02:30:22;;;;;;;34.55;19.90;;;;;;;;;;6215136;28;20080;-69
2021/01/13 02:33:27;;;;;;;34.60;19.70;;;;;;;;;;6211371;28;20629;-70
2021/01/13 02:36:49;;;;;;;37.20;20.40;;;;;;;;;;6216553;28;20050;-66
2021/01/13 02:39:51;;;;;;;32.50;20.00;;;;;;;;;;6213133;28;20052;-68
2021/01/13 02:43:02;;;;;;;34.20;20.70;;;;;;;;;;6218763;28;20046;-69
2021/01/13 02:46:10;;;;;;;34.33;19.35;;;;;;;;;;6213306;28;20043;-68
2021/01/13 02:49:13;;;;;;;33.60;20.55;;;;;;;;;;6215576;28;20465;-70
2021/01/13 02:52:18;;;;;;;31.73;18.88;;;;;;;;;;6216099;28;20064;-69
2021/01/13 02:55:20;;;;;;;34.33;19.65;;;;;;;;;;6216975;28;20286;-71
2021/01/13 02:58:25;;;;;;;38.80;21.45;;;;;;;;;;6211521;28;20049;-70
2021/01/13 03:01:30;;;;;;;32.03;19.40;;;;;;;;;;6211652;28;20402;-67
2021/01/13 03:04:31;;;;;;;33.60;21.80;;;;;;;;;;6209049;28;20136;-68
2021/01/13 03:07:35;;;;;;;38.67;20.45;;;;;;;;;;6212664;28;20804;-69
2021/01/13 03:10:38;;;;;;;33.05;22.92;;;;;;;;;;6208830;28;20065;-72
2021/01/13 03:13:43;;;;;;;37.72;23.38;;;;;;;;;;6208962;28;20181;-70
2021/01/13 03:16:47;;;;;;;32.78;18.83;;;;;;;;;;6209839;28;20428;-67
2021/01/13 03:20:10;;;;;;;33.13;18.23;;;;;;;;;;6208975;28;20132;-67
2021/01/13 03:23:14;;;;;;;32.38;19.15;;;;;;;;;;6211843;28;20069;-70
2021/01/13 03:26:18;;;;;;;33.65;18.30;;;;;;;;;;6205637;28;20081;-67
2021/01/13 03:29:20;;;;;;;40.15;19.40;;;;;;;;;;6208792;28;20050;-68
2021/01/13 03:32:29;;;;;;;35.47;19.42;;;;;;;;;;6209319;28;20686;-68
2021/01/13 03:35:37;;;;;;;32.30;20.20;;;;;;;;;;6212408;28;20116;-67
2021/01/13 03:38:52;;;;;;;34.75;19.08;;;;;;;;;;6212101;28;20124;-69
2021/01/13 03:42:00;;;;;;;;;;;;;;;;;;6213074;28;20165;-68
2021/01/13 03:45:06;;;;;;;32.80;19.65;;;;;;;;;;6213670;28;19921;-70
2021/01/13 03:48:10;;;;;;;34.47;20.08;;;;;;;;;;6216068;28;20074;-69
2021/01/13 03:51:33;;;;;;;35.40;20.52;;;;;;;;;;6215781;28;20161;-68
2021/01/13 03:54:35;;;;;;;30.52;19.40;;;;;;;;;;6221659;28;20045;-70
2021/01/13 03:58:10;;;;;;;29.08;18.23;;;;;;;;;;6214340;28;20052;-69
2021/01/13 04:01:35;;;;;;;35.13;19.10;;;;;;;;;;6181209;28;20042;-67
2021/01/13 04:05:05;;;;;;;31.25;18.85;;;;;;;;;;6214822;28;20065;-70
2021/01/13 04:08:06;;;;;;;28.50;17.33;;;;;;;;;;6210108;28;20042;-69
2021/01/13 04:11:09;;;;;;;27.42;17.35;;;;;;;;;;6216400;28;20140;-69
2021/01/13 04:14:11;;;;;;;29.08;18.77;;;;;;;;;;6208102;28;20053;-69
2021/01/13 04:17:14;;;;;;;29.13;17.73;;;;;;;;;;6209047;28;20405;-70
2021/01/13 04:20:16;;;;;;;27.27;16.20;;;;;;;;;;6211733;28;20101;-70
2021/01/13 04:23:17;;;;;;;30.02;18.20;;;;;;;;;;6215444;28;20596;-69
2021/01/13 04:26:19;;;;;;;25.27;15.00;;;;;;;;;;6214945;28;20563;-67
2021/01/13 04:29:20;;;;;;;27.02;15.75;;;;;;;;;;6213221;28;20081;-68
2021/01/13 04:32:22;;;;;;;27.80;15.70;;;;;;;;;;6208864;28;20125;-69
2021/01/13 04:35:25;;;;;;;27.02;16.10;;;;;;;;;;6210099;28;20050;-69
2021/01/13 04:38:28;;;;;;;25.90;15.35;;;;;;;;;;6212892;28;20100;-70
2021/01/13 04:41:30;;;;;;;28.50;16.25;;;;;;;;;;6211289;28;20054;-71
2021/01/13 04:44:32;;;;;;;24.33;15.75;;;;;;;;;;6213605;28;20058;-69
2021/01/13 04:47:51;;;;;;;26.90;16.33;;;;;;;;;;6213219;28;20408;-69
2021/01/13 04:50:52;;;;;;;21.80;14.50;;;;;;;;;;6216134;28;20053;-71
2021/01/13 04:53:55;;;;;;;24.90;13.25;;;;;;;;;;6216770;28;20048;-69
2021/01/13 04:57:11;;;;;;;23.23;13.63;;;;;;;;;;6217569;28;20140;-69
2021/01/13 05:00:23;;;;;;;21.10;13.82;;;;;;;;;;6213005;28;20124;-69
2021/01/13 05:03:50;;;;;;;20.00;12.05;;;;;;;;;;6216145;28;20129;-69
2021/01/13 05:07:06;;;;;;;20.50;12.93;;;;;;;;;;6210452;28;20058;-69
2021/01/13 05:10:10;;;;;;;20.20;13.05;;;;;;;;;;6217706;28;20062;-69
2021/01/13 05:13:15;;;;;;;20.63;13.20;;;;;;;;;;6214585;28;20124;-69
2021/01/13 05:16:17;;;;;;;23.42;13.63;;;;;;;;;;6217294;28;20488;-67
2021/01/13 05:19:40;;;;;;;22.02;12.63;;;;;;;;;;6216932;28;20088;-67
2021/01/13 05:22:41;;;;;;;20.08;12.30;;;;;;;;;;6211464;28;20064;-69
2021/01/13 05:25:45;;;;;;;19.58;12.07;;;;;;;;;;6211701;28;20081;-69
2021/01/13 05:29:08;;;;;;;16.67;10.23;;;;;;;;;;6212718;28;20060;-69
2021/01/13 05:32:09;;;;;;;16.58;9.80;;;;;;;;;;6210282;28;20095;-67
2021/01/13 05:35:12;;;;;;;18.98;11.27;;;;;;;;;;6210691;28;20180;-69
2021/01/13 05:38:18;;;;;;;18.63;9.90;;;;;;;;;;6211194;28;20108;-68
2021/01/13 05:41:20;;;;;;;15.77;10.07;;;;;;;;;;6214257;28;20147;-70
2021/01/13 05:44:21;;;;;;;15.93;9.45;;;;;;;;;;6213128;28;20128;-68
2021/01/13 05:47:49;;;;;;;16.55;9.73;;;;;;;;;;6216043;28;20050;-70
2021/01/13 05:50:56;;;;;;;19.65;10.40;;;;;;;;;;6213587;28;20389;-68
2021/01/13 05:53:58;;;;;;;14.73;9.43;;;;;;;;;;6210913;28;20046;-70
2021/01/13 05:56:59;;;;;;;14.65;9.23;;;;;;;;;;6210124;28;20050;-70
2021/01/13 06:00:04;;;;;;;16.42;9.93;;;;;;;;;;6212538;28;20129;-68
2021/01/13 06:03:06;;;;;;;19.10;10.82;;;;;;;;;;6213513;28;20664;-68
2021/01/13 06:06:10;;;;;;;14.23;9.15;;;;;;;;;;6209895;28;20497;-70
2021/01/13 06:09:12;;;;;;;16.08;10.50;;;;;;;;;;6209820;28;20056;-67
2021/01/13 06:12:15;;;;;;;16.52;11.40;;;;;;;;;;6209352;28;20054;-66
2021/01/13 06:15:24;;;;;;;16.03;9.37;;;;;;;;;;6210887;28;20052;-70
2021/01/13 06:18:26;;;;;;;17.60;10.35;;;;;;;;;;6207829;28;20045;-68
2021/01/13 06:21:29;;;;;;;19.88;11.13;;;;;;;;;;6209720;28;20073;-69
2021/01/13 06:24:33;;;;;;;20.13;10.95;;;;;;;;;;6209428;28;20048;-68
2021/01/13 06:27:45;;;;;;;20.33;11.65;;;;;;;;;;6205883;28;20069;-69
2021/01/13 06:30:48;;;;;;;17.23;10.45;;;;;;;;;;6202998;28;20722;-68
2021/01/13 06:34:24;;;;;;;16.25;9.98;;;;;;;;;;6211905;28;20053;-68
2021/01/13 06:37:47;;;;;;;16.90;9.73;;;;;;;;;;6209394;28;20081;-70
2021/01/13 06:40:57;;;;;;;14.10;10.55;;;;;;;;;;6208628;28;20061;-69
2021/01/13 06:44:04;;;;;;;18.92;10.77;;;;;;;;;;6208183;28;20062;-69
2021/01/13 06:47:05;;;;;;;17.40;9.93;;;;;;;;;;6209566;28;20736;-70
2021/01/13 06:50:07;;;;;;;21.73;9.73;;;;;;;;;;6212275;28;20058;-69
2021/01/13 06:53:10;;;;;;;16.73;10.02;;;;;;;;;;6210999;28;20143;-69
2021/01/13 06:56:13;;;;;;;13.45;8.52;;;;;;;;;;6211997;28;20596;-69
2021/01/13 06:59:15;;;;;;;20.23;10.80;;;;;;;;;;6212642;28;20067;-68
2021/01/13 07:02:16;;;;;;;14.38;9.70;;;;;;;;;;6209845;28;20096;-70
2021/01/13 07:05:32;;;;;;;15.80;8.77;;;;;;;;;;6210200;28;20046;-69
2021/01/13 07:08:35;;;;;;;16.02;9.05;;;;;;;;;;6210686;28;20077;-70
2021/01/13 07:11:39;;;;;;;13.90;8.05;;;;;;;;;;6209463;28;20045;-70
2021/01/13 07:14:42;;;;;;;16.10;8.50;;;;;;;;;;6213302;28;20152;-70
2021/01/13 07:17:43;;;;;;;15.57;8.98;;;;;;;;;;6212169;28;20185;-70
2021/01/13 07:20:48;;;;;;;12.85;8.00;;;;;;;;;;6208853;28;20428;-70
2021/01/13 07:23:50;;;;;;;;;;;;;;;;;;6210628;28;20093;-69
2021/01/13 07:26:51;;;;;;;12.02;8.15;;;;;;;;;;6210266;28;20762;-69
2021/01/13 07:29:53;;;;;;;19.15;8.13;;;;;;;;;;6207701;28;20125;-69
2021/01/13 07:32:59;;;;;;;12.35;8.90;;;;;;;;;;6211362;28;20060;-69
2021/01/13 07:36:01;;;;;;;16.52;7.72;;;;;;;;;;6209306;28;20056;-69
2021/01/13 07:39:05;;;;;;;14.40;8.50;;;;;;;;;;6206361;28;20061;-69
2021/01/13 07:42:17;;;;;;;;;;;;;;;;;;6214158;28;20169;-69
2021/01/13 07:45:19;;;;;;;13.73;7.35;;;;;;;;;;6211409;28;20304;-69
2021/01/13 07:48:50;;;;;;;16.80;8.02;;;;;;;;;;6210117;28;20477;-71
2021/01/13 07:51:52;;;;;;;10.38;6.72;;;;;;;;;;6207378;28;20124;-68
2021/01/13 07:54:58;;;;;;;10.85;6.78;;;;;;;;;;6213691;28;20054;-68
2021/01/13 07:58:00;;;;;;;11.18;7.05;;;;;;;;;;6208434;28;20124;-69
2021/01/13 08:01:51;;;;;;;9.50;6.30;;;;;;;;;;6206274;28;20046;-68
2021/01/13 08:05:32;;;;;;;11.70;7.00;;;;;;;;;;6109980;29;20066;-68
2021/01/13 08:09:00;;;;;;;10.52;6.65;;;;;;;;;;6066477;28;20042;-68
2021/01/13 08:12:56;;;;;;;10.07;6.57;;;;;;;;;;6182377;28;20072;-68
2021/01/13 08:16:31;;;;;;;13.40;6.47;;;;;;;;;;6093982;28;20049;-70
2021/01/13 08:20:21;;;;;;;10.68;6.40;;;;;;;;;;6186277;28;20125;-69
2021/01/13 08:23:27;;;;;;;10.32;7.03;;;;;;;;;;6174771;28;20101;-69
2021/01/13 08:26:28;;;;;;;10.98;6.57;;;;;;;;;;6210075;28;20126;-69
2021/01/13 08:29:36;;;;;;;14.15;6.97;;;;;;;;;;6212841;28;20424;-69
2021/01/13 08:32:41;;;;;;;12.65;6.53;;;;;;;;;;6164584;28;20460;-67
2021/01/13 08:35:47;;;;;;;10.25;6.35;;;;;;;;;;6215826;28;20078;-69
2021/01/13 08:39:04;;;;;;;17.60;6.65;;;;;;;;;;6211777;28;20054;-67
2021/01/13 08:42:22;;;;;;;12.77;7.05;;;;;;;;;;6217407;28;20121;-70
2021/01/13 08:45:36;;;;;;;14.07;6.60;;;;;;;;;;6209658;28;20049;-68
2021/01/13 08:48:39;;;;;;;11.02;6.63;;;;;;;;;;6207888;28;20077;-67
2021/01/13 08:52:11;;;;;;;10.43;6.22;;;;;;;;;;6214419;28;20547;-69
2021/01/13 08:55:14;;;;;;;13.88;6.50;;;;;;;;;;6191568;28;20053;-69
2021/01/13 08:58:26;;;;;;;11.43;6.75;;;;;;;;;;6178586;28;20046;-69
2021/01/13 09:01:37;;;;;;;13.05;6.25;;;;;;;;;;6206585;28;20053;-68
2021/01/13 09:04:53;;;;;;;11.20;6.78;;;;;;;;;;6202246;28;20058;-68
2021/01/13 09:07:55;;;;;;;10.73;6.78;;;;;;;;;;6208185;28;20219;-68
2021/01/13 09:10:56;;;;;;;11.07;6.78;;;;;;;;;;6206691;28;20072;-68
2021/01/13 09:14:16;;;;;;;14.18;7.70;;;;;;;;;;6206004;28;20413;-69
2021/01/13 09:17:18;;;;;;;12.43;7.30;;;;;;;;;;6206854;28;20493;-68
2021/01/13 09:20:22;;;;;;;10.75;6.93;;;;;;;;;;6206412;28;20054;-69
2021/01/13 09:23:23;;;;;;;12.40;6.40;;;;;;;;;;6206899;28;20402;-68
2021/01/13 09:26:32;;;;;;;12.52;5.78;;;;;;;;;;6206201;28;20199;-67
2021/01/13 09:29:47;;;;;;;9.50;6.25;;;;;;;;;;6206269;28;20046;-68
2021/01/13 09:32:53;;;;;;;9.65;5.78;;;;;;;;;;6210165;28;20485;-68
2021/01/13 09:35:59;;;;;;;10.90;5.45;;;;;;;;;;6215117;28;20052;-68
2021/01/13 09:39:12;;;;;;;12.00;5.82;;;;;;;;;;6212797;28;20124;-67
2021/01/13 09:42:15;;;;;;;11.40;5.35;;;;;;;;;;6212347;28;20042;-68
2021/01/13 09:45:16;;;;;;;8.35;5.53;;;;;;;;;;6209619;28;20057;-69
2021/01/13 09:48:19;;;;;;;12.32;5.28;;;;;;;;;;6211540;28;20044;-69
2021/01/13 09:51:22;;;;;;;10.65;4.68;;;;;;;;;;6213727;28;20126;-68
2021/01/13 09:54:24;;;;;;;6.03;4.18;;;;;;;;;;6209341;28;20115;-70
2021/01/13 09:57:28;;;;;;;7.22;4.20;;;;;;;;;;6212231;28;20154;-69
2021/01/13 10:00:33;;;;;;;7.35;4.07;;;;;;;;;;6207979;28;21012;-69
2021/01/13 10:03:35;;;;;;;7.78;4.47;;;;;;;;;;6209121;28;20046;-69
2021/01/13 10:06:40;;;;;;;7.30;4.03;;;;;;;;;;6207891;28;20080;-68
2021/01/13 10:09:43;;;;;;;8.35;4.30;;;;;;;;;;6206162;28;20042;-67
2021/01/13 10:12:45;;;;;;;8.48;3.65;;;;;;;;;;6209553;28;20089;-68
2021/01/13 10:15:46;;;;;;;10.57;3.90;;;;;;;;;;6203207;28;20065;-69
2021/01/13 10:18:50;;;;;;;10.10;4.13;;;;;;;;;;6211135;28;20133;-69
2021/01/13 10:21:51;;;;;;;11.35;4.75;;;;;;;;;;6213440;28;20038;-69
2021/01/13 10:24:53;;;;;;;7.32;4.80;;;;;;;;;;6205053;28;20172;-69
2021/01/13 10:27:54;;;;;;;6.32;4.72;;;;;;;;;;6207728;28;20456;-68
2021/01/13 10:30:56;;;;;;;11.70;4.63;;;;;;;;;;6208673;28;21605;-69
2021/01/13 10:33:58;;;;;;;10.50;5.20;;;;;;;;;;6212320;28;20058;-69
2021/01/13 10:36:59;;;;;;;12.48;5.32;;;;;;;;;;6207181;28;20222;-66
2021/01/13 10:40:08;;;;;;;12.45;5.10;;;;;;;;;;6202012;28;20045;-66
2021/01/13 10:43:10;;;;;;;9.68;6.32;;;;;;;;;;6209879;28;20125;-68
2021/01/13 10:46:11;;;;;;;11.13;6.32;;;;;;;;;;6209772;28;20048;-68
2021/01/13 10:49:24;;;;;;;12.52;6.75;;;;;;;;;;6209447;28;20045;-68
2021/01/13 10:52:25;;;;;;;12.90;8.00;;;;;;;;;;6216388;28;20096;-68
2021/01/13 10:55:28;;;;;;;11.43;7.70;;;;;;;;;;6219798;28;20121;-67
2021/01/13 10:58:30;;;;;;;15.93;8.23;;;;;;;;;;6218035;28;20156;-67
2021/01/13 11:01:31;;;;;;;13.90;8.50;;;;;;;;;;6218244;28;20129;-67
2021/01/13 11:04:38;;;;;;;18.15;9.85;;;;;;;;;;6209660;28;20050;-68
2021/01/13 11:07:40;;;;;;;17.10;9.52;;;;;;;;;;6215506;28;20053;-68
2021/01/13 11:10:42;;;;;;;12.02;8.23;;;;;;;;;;6202353;28;20058;-67
2021/01/13 11:13:46;;;;;;;12.70;8.77;;;;;;;;;;6206035;28;20137;-70
2021/01/13 11:17:01;;;;;;;11.50;8.00;;;;;;;;;;6205208;28;20069;-66
2021/01/13 11:20:05;;;;;;;15.32;8.20;;;;;;;;;;6205448;28;20811;-67
2021/01/13 11:23:07;;;;;;;13.60;7.85;;;;;;;;;;6207620;28;20131;-66
2021/01/13 11:26:08;;;;;;;11.57;8.32;;;;;;;;;;6194404;28;20049;-67
2021/01/13 11:29:09;;;;;;;13.13;8.85;;;;;;;;;;6194031;28;20050;-68
2021/01/13 11:32:16;;;;;;;12.07;7.97;;;;;;;;;;6202483;28;20528;-66
2021/01/13 11:35:29;;;;;;;14.10;8.50;;;;;;;;;;6203420;28;20140;-68
2021/01/13 11:38:59;;;;;;;11.98;8.27;;;;;;;;;;6204733;28;20057;-65
2021/01/13 11:42:05;;;;;;;11.40;7.95;;;;;;;;;;6207947;28;20084;-66
2021/01/13 11:45:16;;;;;;;8.02;6.43;;;;;;;;;;6199615;28;20050;-66
2021/01/13 11:48:21;;;;;;;14.15;7.20;;;;;;;;;;6210933;28;20408;-70
2021/01/13 11:51:24;;;;;;;14.48;7.15;;;;;;;;;;6214206;28;20076;-67
2021/01/13 11:58:22;;;;;;;10.63;7.38;;;;;;;;;;6209478;28;20621;-67
2021/01/13 12:01:24;;;;;;;11.88;7.05;;;;;;;;;;6212921;28;20037;-68
2021/01/13 12:04:25;;;;;;;10.00;7.50;;;;;;;;;;6205626;28;20451;-67
2021/01/13 12:07:27;;;;;;;10.93;7.10;;;;;;;;;;6208728;28;20050;-67
2021/01/13 12:10:33;;;;;;;12.20;7.85;;;;;;;;;;6208062;28;20073;-66
2021/01/13 12:13:43;;;;;;;12.38;7.72;;;;;;;;;;6201979;28;20057;-67
2021/01/13 12:16:44;;;;;;;12.57;7.28;;;;;;;;;;6207689;28;20548;-67
2021/01/13 12:19:45;;;;;;;13.77;7.47;;;;;;;;;;6199255;28;20046;-69
2021/01/13 12:22:47;;;;;;;12.90;7.13;;;;;;;;;;6210606;28;20381;-68
2021/01/13 12:25:49;;;;;;;15.98;8.05;;;;;;;;;;6212251;28;20157;-68
2021/01/13 12:28:52;;;;;;;10.18;7.28;;;;;;;;;;6214015;28;20133;-66
2021/01/13 12:31:53;;;;;;;9.65;7.70;;;;;;;;;;6212688;28;20478;-67
2021/01/13 12:34:56;;;;;;;12.15;8.13;;;;;;;;;;6214640;28;20373;-69
2021/01/13 12:37:58;;;;;;;11.70;8.13;;;;;;;;;;6213106;28;20141;-68
2021/01/13 12:41:03;;;;;;;11.68;7.82;;;;;;;;;;6213203;28;20061;-68
2021/01/13 12:44:06;;;;;;;14.05;7.75;;;;;;;;;;6212733;28;20042;-67
2021/01/13 12:47:09;;;;;;;10.43;7.40;;;;;;;;;;6210660;28;20124;-68
2021/01/13 12:50:10;;;;;;;14.00;8.05;;;;;;;;;;6210867;28;20896;-66
2021/01/13 12:53:12;;;;;;;10.55;7.55;;;;;;;;;;5867498;28;9999944;-68
2021/01/13 12:56:23;;;;;;;13.30;8.35;;;;;;;;;;6207031;28;20060;-66
2021/01/13 12:59:24;;;;;;;10.30;7.28;;;;;;;;;;6210682;28;20096;-65
2021/01/13 13:02:25;;;;;;;9.75;7.43;;;;;;;;;;6213710;28;20877;-66
2021/01/13 13:05:26;;;;;;;12.07;7.20;;;;;;;;;;6209354;28;20140;-66
2021/01/13 13:08:28;;;;;;;14.45;8.05;;;;;;;;;;6200456;28;20060;-67
2021/01/13 13:11:29;;;;;;;12.95;8.32;;;;;;;;;;6209783;28;20065;-65
2021/01/13 13:14:31;;;;;;;13.32;8.43;;;;;;;;;;6212869;28;20562;-65
2021/01/13 13:17:32;;;;;;;14.85;8.10;;;;;;;;;;6209186;28;20044;-65
2021/01/13 13:20:33;;;;;;;10.98;7.97;;;;;;;;;;6213405;28;20064;-65
2021/01/13 13:23:35;;;;;;;12.82;8.20;;;;;;;;;;6213316;28;20042;-65
2021/01/13 13:26:36;;;;;;;12.18;8.43;;;;;;;;;;6208620;28;20147;-65
2021/01/13 13:29:37;;;;;;;12.05;8.07;;;;;;;;;;6212096;28;20058;-66
2021/01/13 13:32:39;;;;;;;14.00;8.23;;;;;;;;;;6213310;28;20152;-66
2021/01/13 13:35:40;;;;;;;12.82;8.32;;;;;;;;;;6215486;28;20192;-66
2021/01/13 13:38:42;;;;;;;11.85;8.60;;;;;;;;;;6208764;28;20114;-66
2021/01/13 13:41:43;;;;;;;12.93;8.10;;;;;;;;;;6208762;28;20089;-65
2021/01/13 13:44:44;;;;;;;11.20;7.53;;;;;;;;;;5513633;28;10000811;-65
2021/01/13 13:47:45;;;;;;;12.13;7.60;;;;;;;;;;6206374;28;20200;-67
2021/01/13 13:50:46;;;;;;;12.65;7.57;;;;;;;;;;6201633;28;20135;-65
2021/01/13 13:53:48;;;;;;;12.88;7.55;;;;;;;;;;6206319;28;20050;-66
2021/01/13 13:56:54;;;;;;;11.68;7.93;;;;;;;;;;6202992;28;20046;-68
2021/01/13 13:59:55;;;;;;;13.20;7.22;;;;;;;;;;6206852;28;20554;-66
2021/01/13 14:02:56;;;;;;;13.50;7.85;;;;;;;;;;6208894;28;20132;-67
2021/01/13 14:05:57;;;;;;;9.95;7.57;;;;;;;;;;6209762;28;20136;-68
2021/01/13 14:08:59;;;;;;;14.90;7.05;;;;;;;;;;6205188;28;20499;-67
2021/01/13 14:12:00;;;;;;;9.02;6.53;;;;;;;;;;6208474;28;20124;-67
2021/01/13 14:15:01;;;;;;;9.82;6.28;;;;;;;;;;6206523;28;20123;-67
2021/01/13 14:18:02;;;;;;;10.80;5.90;;;;;;;;;;6205571;28;20073;-66
2021/01/13 14:21:04;;;;;;;14.32;6.65;;;;;;;;;;6209163;28;20042;-67
2021/01/13 14:24:06;;;;;;;11.70;7.18;;;;;;;;;;6209999;28;20184;-66
2021/01/13 14:27:07;;;;;;;14.35;8.02;;;;;;;;;;6209682;28;20440;-66
2021/01/13 14:30:10;;;;;;;13.68;7.75;;;;;;;;;;6207366;28;20137;-66
2021/01/13 14:33:11;;;;;;;14.35;7.35;;;;;;;;;;6208902;28;20066;-67
2021/01/13 14:36:16;;;;;;;15.57;8.68;;;;;;;;;;6206972;28;20050;-66
2021/01/13 14:39:18;;;;;;;13.27;7.82;;;;;;;;;;6208860;28;20132;-69
2021/01/13 14:42:19;;;;;;;14.15;8.70;;;;;;;;;;6206927;28;20129;-68
2021/01/13 14:45:20;;;;;;;13.68;8.32;;;;;;;;;;6205080;28;20046;-67
2021/01/13 14:48:21;;;;;;;15.15;8.57;;;;;;;;;;6201521;28;20508;-67
2021/01/13 14:51:25;;;;;;;13.20;8.52;;;;;;;;;;6206280;28;20072;-69
2021/01/13 14:54:26;;;;;;;16.63;8.15;;;;;;;;;;6206239;28;20045;-67
2021/01/13 14:57:28;;;;;;;11.98;7.45;;;;;;;;;;6209105;28;20045;-68
2021/01/13 15:00:29;;;;;;;12.82;7.70;;;;;;;;;;6203277;28;20150;-68
2021/01/13 15:03:30;;;;;;;15.55;7.35;;;;;;;;;;6207046;28;20144;-69
2021/01/13 15:06:31;;;;;;;12.38;7.57;;;;;;;;;;6209201;28;20125;-69
2021/01/13 15:09:34;;;;;;;11.05;7.53;;;;;;;;;;6211977;28;20107;-68
2021/01/13 15:12:35;;;;;;;11.82;6.93;;;;;;;;;;6206207;28;20574;-69
2021/01/13 15:15:36;;;;;;;15.27;7.30;;;;;;;;;;6204758;28;20445;-68
2021/01/13 15:18:37;;;;;;;12.68;7.38;;;;;;;;;;6205651;28;20487;-67
2021/01/13 15:21:38;;;;;;;11.27;7.50;;;;;;;;;;6204534;28;20046;-67
2021/01/13 15:24:40;;;;;;;10.60;7.82;;;;;;;;;;6204788;28;20579;-68
2021/01/13 15:27:41;;;;;;;12.68;8.75;;;;;;;;;;6204774;28;20091;-69
2021/01/13 15:30:42;;;;;;;12.23;7.95;;;;;;;;;;6205438;28;20177;-67
2021/01/13 15:33:43;;;;;;;13.45;8.40;;;;;;;;;;6209029;28;20140;-68
2021/01/13 15:36:44;;;;;;;13.65;8.75;;;;;;;;;;6207516;28;20050;-68
2021/01/13 15:39:48;;;;;;;13.80;8.82;;;;;;;;;;6208121;28;20141;-67
2021/01/13 15:42:49;;;;;;;;;;;;;;;;;;6209413;28;20049;-67
2021/01/13 15:45:50;;;;;;;12.65;9.00;;;;;;;;;;6201146;28;19926;-70
2021/01/13 15:48:52;;;;;;;14.05;9.07;;;;;;;;;;6204883;28;20050;-69
2021/01/13 15:51:53;;;;;;;13.48;9.13;;;;;;;;;;6206132;28;20046;-70
2021/01/13 15:54:55;;;;;;;15.57;9.07;;;;;;;;;;6206949;28;20595;-67
2021/01/13 15:57:57;;;;;;;18.63;10.07;;;;;;;;;;6199863;28;20050;-69
2021/01/13 16:00:59;;;;;;;17.13;10.40;;;;;;;;;;6209459;28;20485;-69
2021/01/13 16:04:01;;;;;;;19.55;10.90;;;;;;;;;;6200709;28;20072;-67
2021/01/13 16:07:03;;;;;;;18.73;10.45;;;;;;;;;;6205815;28;20042;-71
2021/01/13 16:10:07;;;;;;;15.75;10.57;;;;;;;;;;6208014;28;20046;-67
2021/01/13 16:13:08;;;;;;;17.35;10.00;;;;;;;;;;6208222;28;20511;-68
2021/01/13 16:16:12;;;;;;;21.05;10.02;;;;;;;;;;6209103;28;20172;-68
2021/01/13 16:19:14;;;;;;;19.50;10.80;;;;;;;;;;6213341;28;20053;-68
2021/01/13 16:22:17;;;;;;;17.02;10.02;;;;;;;;;;6206300;28;20588;-70
2021/01/13 16:25:20;;;;;;;20.05;10.45;;;;;;;;;;6209972;28;20056;-68
2021/01/13 16:28:21;;;;;;;15.82;10.23;;;;;;;;;;6209487;28;20502;-68
2021/01/13 16:31:23;;;;;;;20.08;10.20;;;;;;;;;;6206045;28;20053;-69
2021/01/13 16:34:24;;;;;;;15.40;10.02;;;;;;;;;;6212826;28;20058;-69
2021/01/13 16:37:26;;;;;;;17.40;10.23;;;;;;;;;;6209942;28;20061;-68
2021/01/13 16:40:28;;;;;;;16.00;10.40;;;;;;;;;;6209749;28;20042;-69
2021/01/13 16:43:33;;;;;;;19.92;10.50;;;;;;;;;;6210119;28;20501;-70
2021/01/13 16:46:34;;;;;;;16.27;10.65;;;;;;;;;;6206447;28;20045;-72
2021/01/13 16:49:35;;;;;;;16.42;10.18;;;;;;;;;;6201466;28;20270;-70
2021/01/13 16:52:37;;;;;;;22.73;11.70;;;;;;;;;;6207182;28;20041;-73
2021/01/13 16:55:40;;;;;;;16.08;10.30;;;;;;;;;;6198681;28;20054;-68
2021/01/13 16:58:41;;;;;;;18.58;10.70;;;;;;;;;;6204488;28;20072;-70
2021/01/13 17:01:43;;;;;;;15.90;11.18;;;;;;;;;;6210404;28;20077;-68
2021/01/13 17:04:44;;;;;;;18.75;10.23;;;;;;;;;;6209693;28;20045;-68
2021/01/13 17:07:46;;;;;;;20.80;11.00;;;;;;;;;;6207594;28;20056;-66
2021/01/13 17:10:49;;;;;;;18.20;11.35;;;;;;;;;;6209587;28;20380;-67
2021/01/13 17:13:50;;;;;;;16.77;11.43;;;;;;;;;;6207252;28;20104;-68
2021/01/13 17:16:52;;;;;;;16.98;11.20;;;;;;;;;;6211183;28;20042;-67
2021/01/13 17:19:54;;;;;;;15.27;10.43;;;;;;;;;;6209285;28;20412;-67
2021/01/13 17:22:56;;;;;;;16.88;10.70;;;;;;;;;;6211098;28;20077;-69
2021/01/13 17:25:58;;;;;;;16.30;10.93;;;;;;;;;;6211310;28;20050;-68
2021/01/13 17:28:59;;;;;;;16.60;10.73;;;;;;;;;;6211880;28;20116;-68
2021/01/13 17:32:00;;;;;;;20.17;10.85;;;;;;;;;;6209023;28;20479;-68
2021/01/13 17:35:02;;;;;;;14.82;10.85;;;;;;;;;;6209069;28;20052;-68
2021/01/13 17:38:04;;;;;;;14.68;10.18;;;;;;;;;;6208716;28;20157;-68
2021/01/13 17:41:11;;;;;;;15.07;9.20;;;;;;;;;;6209486;28;20062;-71
2021/01/13 17:44:14;;;;;;;17.92;9.32;;;;;;;;;;6188000;28;20428;-71
2021/01/13 17:47:21;;;;;;;16.48;9.93;;;;;;;;;;6205978;28;20042;-66
2021/01/13 17:50:23;;;;;;;14.38;9.43;;;;;;;;;;6206496;28;20088;-69
2021/01/13 17:53:27;;;;;;;13.82;9.75;;;;;;;;;;6200566;28;20049;-68
2021/01/13 17:56:29;;;;;;;19.92;10.63;;;;;;;;;;6212517;28;20042;-69
2021/01/13 17:59:30;;;;;;;19.17;10.77;;;;;;;;;;6206919;28;20451;-69
2021/01/13 18:02:35;;;;;;;21.65;10.63;;;;;;;;;;6197444;28;20144;-68
2021/01/13 18:05:43;;;;;;;16.83;10.70;;;;;;;;;;6210610;28;20346;-68
2021/01/13 18:08:44;;;;;;;15.23;10.13;;;;;;;;;;6209056;28;20054;-67
2021/01/13 18:11:46;;;;;;;17.52;8.57;;;;;;;;;;6208774;28;20096;-70